createdAt,value
2023-08-03T00:01:59.847Z,96240.34
2023-08-03T00:04:26.519Z,96238.06
2023-08-03T00:06:53.175Z,96237.03
2023-08-03T00:09:19.745Z,96235.81
2023-08-03T00:11:46.346Z,96238.06
2023-08-03T00:14:12.888Z,96250.03
2023-08-03T00:16:39.479Z,96253.97
2023-08-03T00:19:06.002Z,96246.56
2023-08-03T00:21:32.714Z,96259.00
2023-08-03T00:23:59.341Z,96252.94
2023-08-03T00:26:25.956Z,96257.31
2023-08-03T00:28:52.621Z,96254.59
2023-08-03T00:31:19.291Z,96259.09
2023-08-03T00:33:45.824Z,96266.69
2023-08-03T00:36:12.463Z,96272.16
2023-08-03T00:38:39.035Z,96265.94
2023-08-03T00:41:05.660Z,96274.41
2023-08-03T00:43:32.244Z,96267.91
2023-08-03T00:45:58.917Z,96271.69
2023-08-03T00:48:25.449Z,96265.19
2023-08-03T00:50:51.956Z,96273.66
2023-08-03T00:53:18.562Z,96271.38
2023-08-03T00:55:45.236Z,96277.00
2023-08-03T00:58:11.876Z,96282.91
2023-08-03T01:00:38.501Z,96284.88
2023-08-03T01:03:05.248Z,96274.88
2023-08-03T01:05:31.898Z,96280.94
2023-08-03T01:07:58.478Z,96288.06
2023-08-03T01:10:25.005Z,96282.75
2023-08-03T01:12:51.556Z,96290.47
2023-08-03T01:15:18.113Z,96297.88
2023-08-03T01:17:44.761Z,96295.91
2023-08-03T01:20:11.395Z,96303.03
2023-08-03T01:22:37.934Z,96299.56
2023-08-03T01:25:04.543Z,96299.13
2023-08-03T01:27:31.156Z,96303.81
2023-08-03T01:29:57.759Z,96299.72
2023-08-03T01:32:24.354Z,96303.50
2023-08-03T01:34:51.021Z,96295.03
2023-08-03T01:37:17.643Z,96296.06
2023-08-03T01:39:44.210Z,96307.88
2023-08-03T01:42:13.553Z,96309.69
2023-08-03T01:44:40.065Z,96309.69
2023-08-03T01:47:06.605Z,96314.53
2023-08-03T01:49:33.306Z,96322.53
2023-08-03T01:51:59.921Z,96328.91
2023-08-03T01:54:26.544Z,96334.97
2023-08-03T01:56:53.099Z,96338.31
2023-08-03T01:59:19.659Z,96346.50
2023-08-03T02:01:46.598Z,96337.38
2023-08-03T02:04:13.491Z,96345.25
2023-08-03T02:06:40.029Z,96346.31
2023-08-03T02:09:06.681Z,96356.00
2023-08-03T02:11:33.258Z,96362.22
2023-08-03T02:13:59.765Z,96363.88
2023-08-03T02:16:26.441Z,96368.72
2023-08-03T02:18:53.343Z,96367.50
2023-08-03T02:21:20.015Z,96369.03
2023-08-03T02:23:46.551Z,96373.72
2023-08-03T02:26:13.115Z,96375.09
2023-08-03T02:28:39.665Z,96371.91
2023-08-03T02:31:06.258Z,96371.59
2023-08-03T02:33:32.919Z,96368.44
2023-08-03T02:35:59.461Z,96369.19
2023-08-03T02:38:26.118Z,96369.94
2023-08-03T02:40:52.676Z,96375.69
2023-08-03T02:43:19.295Z,96378.75
2023-08-03T02:45:45.836Z,96376.59
2023-08-03T02:48:12.388Z,96387.50
2023-08-03T02:50:39.005Z,96397.19
2023-08-03T02:53:05.538Z,96388.25
2023-08-03T02:55:32.118Z,96401.31
2023-08-03T02:57:58.723Z,96400.81
2023-08-03T03:00:25.344Z,96400.81
2023-08-03T03:02:51.974Z,96399.44
2023-08-03T03:05:18.657Z,96399.59
2023-08-03T03:07:45.379Z,96400.53
2023-08-03T03:10:11.893Z,96390.50
2023-08-03T03:12:38.550Z,96396.88
2023-08-03T03:15:05.135Z,96392.63
2023-08-03T03:17:31.708Z,96410.19
2023-08-03T03:19:58.274Z,96405.50
2023-08-03T03:22:24.900Z,96401.13
2023-08-03T03:24:51.489Z,96414.00
2023-08-03T03:27:18.023Z,96400.66
2023-08-03T03:29:44.610Z,96403.53
2023-08-03T03:32:11.172Z,96407.16
2023-08-03T03:34:37.717Z,96401.56
2023-08-03T03:37:04.306Z,96400.97
2023-08-03T03:39:30.907Z,96408.66
2023-08-03T03:41:57.398Z,96409.72
2023-08-03T03:44:23.964Z,96416.81
2023-08-03T03:46:50.581Z,96419.56
2023-08-03T03:49:17.149Z,96418.97
2023-08-03T03:51:43.928Z,96427.13
2023-08-03T03:54:10.650Z,96423.19
2023-08-03T03:56:37.302Z,96431.38
2023-08-03T03:59:03.876Z,96430.63
2023-08-03T04:01:30.538Z,96430.78
2023-08-03T04:03:57.281Z,96435.31
2023-08-03T04:06:23.914Z,96445.31
2023-08-03T04:08:50.524Z,96439.53
2023-08-03T04:11:17.150Z,96447.72
2023-08-03T04:13:43.693Z,96446.69
2023-08-03T04:16:10.329Z,96442.59
2023-08-03T04:18:36.877Z,96448.31
2023-08-03T04:21:03.474Z,96445.91
2023-08-03T04:23:30.007Z,96439.97
2023-08-03T04:25:56.600Z,96444.69
2023-08-03T04:28:23.265Z,96441.22
2023-08-03T04:30:49.833Z,96433.81
2023-08-03T04:33:21.092Z,96439.09
2023-08-03T04:35:47.614Z,96444.22
2023-08-03T04:38:14.136Z,96447.88
2023-08-03T04:40:40.735Z,96448.63
2023-08-03T04:43:07.454Z,96452.56
2023-08-03T04:45:34.025Z,96456.66
2023-08-03T04:48:00.589Z,96451.81
2023-08-03T04:50:27.305Z,96454.97
2023-08-03T04:52:53.863Z,96453.31
2023-08-03T04:55:23.388Z,96454.69
2023-08-03T04:57:49.972Z,96455.91
2023-08-03T05:00:16.540Z,96464.06
2023-08-03T05:02:43.169Z,96471.97
2023-08-03T05:05:09.832Z,96462.56
2023-08-03T05:07:36.492Z,96481.03
2023-08-03T05:10:03.037Z,96486.50
2023-08-03T05:12:29.647Z,96485.28
2023-08-03T05:14:56.253Z,96478.78
2023-08-03T05:17:22.795Z,96476.06
2023-08-03T05:19:49.405Z,96488.34
2023-08-03T05:22:16.026Z,96481.34
2023-08-03T05:24:45.461Z,96478.63
2023-08-03T05:27:12.130Z,96491.06
2023-08-03T05:29:38.732Z,96491.94
2023-08-03T05:32:05.371Z,96490.44
2023-08-03T05:34:32.025Z,96487.72
2023-08-03T05:36:58.637Z,96491.47
2023-08-03T05:39:25.147Z,96496.00
2023-08-03T05:41:51.659Z,96495.91
2023-08-03T05:44:18.185Z,96498.03
2023-08-03T05:46:44.782Z,96508.84
2023-08-03T05:49:11.443Z,96510.09
2023-08-03T05:51:37.997Z,96506.25
2023-08-03T05:54:04.609Z,96502.50
2023-08-03T05:56:31.166Z,96510.97
2023-08-03T05:58:57.850Z,96509.47
2023-08-03T06:01:24.574Z,96501.34
2023-08-03T06:03:51.206Z,96509.84
2023-08-03T06:06:17.836Z,96499.84
2023-08-03T06:08:44.461Z,96494.78
2023-08-03T06:11:10.966Z,96499.63
2023-08-03T06:13:37.585Z,96495.53
2023-08-03T06:16:04.335Z,96500.41
2023-08-03T06:18:30.934Z,96491.16
2023-08-03T06:20:57.531Z,96488.44
2023-08-03T06:23:24.087Z,96495.38
2023-08-03T06:25:50.592Z,96501.34
2023-08-03T06:28:17.178Z,96504.50
2023-08-03T06:30:43.764Z,96493.31
2023-08-03T06:33:10.379Z,96501.19
2023-08-03T06:35:37.039Z,96499.66
2023-08-03T06:38:03.596Z,96499.97
2023-08-03T06:40:30.156Z,96496.34
2023-08-03T06:42:56.798Z,96498.78
2023-08-03T06:45:23.415Z,96505.75
2023-08-03T06:47:49.973Z,96508.44
2023-08-03T06:50:16.831Z,96497.56
2023-08-03T06:52:43.416Z,96504.56
2023-08-03T06:55:09.963Z,96497.31
2023-08-03T06:57:36.521Z,96506.50
2023-08-03T07:00:03.113Z,96500.22
2023-08-03T07:02:29.751Z,96496.09
2023-08-03T07:04:56.320Z,96500.44
2023-08-03T07:07:22.850Z,96505.81
2023-08-03T07:09:49.579Z,96499.72
2023-08-03T07:12:16.326Z,96514.56
2023-08-03T07:14:42.879Z,96503.06
2023-08-03T07:17:09.568Z,96510.13
2023-08-03T07:19:36.150Z,96515.47
2023-08-03T07:22:02.732Z,96511.38
2023-08-03T07:24:29.252Z,96510.66
2023-08-03T07:26:55.977Z,96509.41
2023-08-03T07:29:22.501Z,96505.47
2023-08-03T07:31:49.222Z,96514.84
2023-08-03T07:34:15.929Z,96515.47
2023-08-03T07:36:42.484Z,96518.25
2023-08-03T07:39:09.070Z,96514.00
2023-08-03T07:41:35.713Z,96512.81
2023-08-03T07:44:02.356Z,96521.88
2023-08-03T07:46:28.961Z,96515.34
2023-08-03T07:48:55.532Z,96526.25
2023-08-03T07:51:23.140Z,96518.06
2023-08-03T07:53:51.162Z,96520.38
2023-08-03T07:56:17.747Z,96511.28
2023-08-03T07:58:44.357Z,96515.38
2023-08-03T08:01:11.193Z,96522.19
2023-08-03T08:03:37.872Z,96526.28
2023-08-03T08:06:04.472Z,96521.84
2023-08-03T08:08:31.042Z,96520.38
2023-08-03T08:11:06.981Z,96524.56
2023-08-03T08:13:39.452Z,96526.09
2023-08-03T08:16:06.173Z,96520.97
2023-08-03T08:18:32.911Z,96517.34
2023-08-03T08:20:59.514Z,96518.38
2023-08-03T08:23:26.110Z,96524.03
2023-08-03T08:25:52.887Z,96532.53
2023-08-03T08:28:19.675Z,96530.03
2023-08-03T08:30:46.313Z,96528.81
2023-08-03T08:33:13.024Z,96535.47
2023-08-03T08:35:42.648Z,96528.38
2023-08-03T08:38:09.247Z,96535.66
2023-08-03T08:40:35.838Z,96529.44
2023-08-03T08:43:02.476Z,96537.75
2023-08-03T08:45:29.105Z,96552.59
2023-08-03T08:48:49.692Z,96551.28
2023-08-03T09:00:39.970Z,96537.41
2023-08-03T09:03:06.660Z,96543.03
2023-08-03T09:08:02.874Z,96534.63
2023-08-03T09:10:29.434Z,96540.03
2023-08-03T09:12:56.002Z,96547.75
2023-08-03T09:15:22.619Z,96542.59
2023-08-03T09:17:49.247Z,96532.03
2023-08-03T09:25:21.131Z,96541.88
2023-08-03T09:30:24.161Z,96537.66
2023-08-03T09:32:51.817Z,96538.72
2023-08-03T09:35:18.673Z,96534.91
2023-08-03T09:37:45.943Z,96541.13
2023-08-03T09:40:13.035Z,96541.56
2023-08-03T09:42:39.646Z,96536.13
2023-08-03T09:47:50.061Z,96536.75
2023-08-03T09:50:16.769Z,96538.56
2023-08-03T09:55:12.867Z,96544.47
2023-08-03T09:57:39.448Z,96552.16
2023-08-03T10:00:06.063Z,96549.44
2023-08-03T10:02:32.673Z,96547.47
2023-08-03T10:04:59.231Z,96543.38
2023-08-03T10:07:25.783Z,96548.25
2023-08-03T10:09:52.453Z,96540.97
2023-08-03T10:12:19.093Z,96547.78
2023-08-03T10:14:45.671Z,96535.69
2023-08-03T10:17:12.274Z,96535.84
2023-08-03T10:19:39.012Z,96536.59
2023-08-03T10:22:05.762Z,96544.19
2023-08-03T10:24:32.386Z,96530.34
2023-08-03T10:26:59.545Z,96523.81
2023-08-03T10:29:27.642Z,96536.56
2023-08-03T10:31:54.354Z,96552.59
2023-08-03T10:34:21.064Z,96545.56
2023-08-03T10:36:47.936Z,96538.03
2023-08-03T10:39:14.782Z,96540.38
2023-08-03T10:41:41.465Z,96536.72
2023-08-03T10:44:08.065Z,96539.28
2023-08-03T10:46:34.770Z,96522.47
2023-08-03T10:49:01.698Z,96528.06
2023-08-03T10:51:28.357Z,96525.34
2023-08-03T10:53:54.968Z,96533.06
2023-08-03T10:56:21.532Z,96521.03
2023-08-03T10:58:48.161Z,96520.84
2023-08-03T11:01:14.790Z,96528.88
2023-08-03T11:03:41.513Z,96540.75
2023-08-03T11:06:08.152Z,96537.06
2023-08-03T11:08:34.690Z,96535.69
2023-08-03T11:11:01.244Z,96530.22
2023-08-03T11:13:27.875Z,96527.94
2023-08-03T11:15:54.572Z,96523.84
2023-08-03T11:18:21.149Z,96516.56
2023-08-03T11:20:47.827Z,96525.34
2023-08-03T11:23:14.482Z,96509.78
2023-08-03T11:25:41.122Z,96517.19
2023-08-03T11:28:07.673Z,96513.88
2023-08-03T11:30:34.197Z,96514.91
2023-08-03T11:33:00.854Z,96520.09
2023-08-03T11:35:27.480Z,96507.81
2023-08-03T11:37:54.093Z,96511.38
2023-08-03T11:40:20.729Z,96499.13
2023-08-03T11:42:47.432Z,96509.59
2023-08-03T11:45:13.993Z,96502.97
2023-08-03T11:47:42.990Z,96509.28
2023-08-03T11:50:10.773Z,96502.34
2023-08-03T11:52:37.340Z,96496.25
2023-08-03T11:55:04.038Z,96507.94
2023-08-03T11:57:30.727Z,96498.09
2023-08-03T11:59:58.025Z,96491.38
2023-08-03T12:02:24.776Z,96488.72
2023-08-03T12:04:51.541Z,96488.56
2023-08-03T12:07:20.692Z,96488.88
2023-08-03T12:09:47.360Z,96495.06
2023-08-03T12:12:13.912Z,96494.47
2023-08-03T12:14:40.624Z,96504.78
2023-08-03T12:17:07.293Z,96500.56
2023-08-03T12:19:34.048Z,96512.19
2023-08-03T12:22:03.559Z,96499.03
2023-08-03T12:24:30.716Z,96510.88
2023-08-03T12:27:04.449Z,96500.53
2023-08-03T12:29:41.337Z,96501.44
2023-08-03T12:32:08.497Z,96497.34
2023-08-03T12:34:35.058Z,96490.25
2023-08-03T12:37:01.617Z,96494.78
2023-08-03T12:39:28.263Z,96501.59
2023-08-03T12:41:57.990Z,96489.19
2023-08-03T12:44:26.627Z,96501.13
2023-08-03T12:46:53.279Z,96499.97
2023-08-03T12:49:19.894Z,96499.31
2023-08-03T12:51:46.470Z,96497.50
2023-08-03T12:54:13.043Z,96494.03
2023-08-03T12:56:39.748Z,96478.13
2023-08-03T12:59:06.424Z,96482.66
2023-08-03T13:01:33.219Z,96485.25
2023-08-03T13:03:59.897Z,96491.13
2023-08-03T13:06:26.514Z,96479.94
2023-08-03T13:08:53.144Z,96492.06
2023-08-03T13:11:19.715Z,96492.38
2023-08-03T13:13:46.425Z,96480.09
2023-08-03T13:16:13.172Z,96479.50
2023-08-03T13:18:39.936Z,96481.59
2023-08-03T13:21:06.545Z,96472.97
2023-08-03T13:23:33.105Z,96479.03
2023-08-03T13:25:59.777Z,96476.28
2023-08-03T13:28:26.441Z,96479.47
2023-08-03T13:30:53.050Z,96479.03
2023-08-03T13:33:19.721Z,96485.69
2023-08-03T13:35:46.349Z,96474.50
2023-08-03T13:38:12.892Z,96474.78
2023-08-03T13:40:42.256Z,96479.34
2023-08-03T13:43:08.785Z,96471.91
2023-08-03T13:45:35.375Z,96469.63
2023-08-03T13:48:02.154Z,96475.25
2023-08-03T13:50:28.872Z,96482.19
2023-08-03T13:52:55.554Z,96462.66
2023-08-03T13:55:22.147Z,96464.47
2023-08-03T13:58:04.921Z,96456.16
2023-08-03T14:00:46.369Z,96463.31
2023-08-03T14:03:14.317Z,96456.44
2023-08-03T14:08:10.683Z,96449.63
2023-08-03T14:10:37.450Z,96443.56
2023-08-03T14:13:04.092Z,96446.00
2023-08-03T14:23:21.373Z,96443.28
2023-08-03T14:25:48.254Z,96438.59
2023-08-03T14:30:44.412Z,96435.88
2023-08-03T14:33:11.335Z,96433.56
2023-08-03T14:35:38.024Z,96453.88
2023-08-03T14:38:04.635Z,96453.00
2023-08-03T14:40:31.242Z,96449.19
2023-08-03T14:42:57.930Z,96442.84
2023-08-03T14:45:28.573Z,96436.00
2023-08-03T14:47:58.618Z,96425.09
2023-08-03T14:50:26.023Z,96433.56
2023-08-03T14:52:52.612Z,96431.13
2023-08-03T14:55:19.271Z,96432.31
2023-08-03T14:57:45.833Z,96429.44
2023-08-03T15:02:38.724Z,96425.03
2023-08-03T15:05:05.497Z,96414.41
2023-08-03T15:07:32.138Z,96429.25
2023-08-03T15:09:58.690Z,96412.53
2023-08-03T15:12:25.406Z,96428.00
2023-08-03T15:14:52.139Z,96413.50
2023-08-03T15:17:25.904Z,96424.44
2023-08-03T15:19:59.642Z,96410.09
2023-08-03T15:22:26.900Z,96404.31
2023-08-03T15:24:54.749Z,96402.75
2023-08-03T15:27:24.779Z,96404.19
2023-08-03T15:29:54.618Z,96408.06
2023-08-03T15:34:53.581Z,96392.94
2023-08-03T15:37:21.922Z,96386.63
2023-08-03T15:39:50.119Z,96387.41
2023-08-03T15:42:21.370Z,96390.63
2023-08-03T15:44:52.191Z,96382.66
2023-08-03T15:47:43.324Z,96384.91
2023-08-03T15:50:07.234Z,96383.41
2023-08-03T15:52:52.517Z,96376.66
2023-08-03T15:57:53.935Z,96377.06
2023-08-03T16:00:20.832Z,96382.16
2023-08-03T16:02:47.453Z,96383.88
2023-08-03T16:05:14.158Z,96382.09
2023-08-03T16:07:40.774Z,96368.34
2023-08-03T16:10:07.390Z,96368.03
2023-08-03T16:12:34.043Z,96368.69
2023-08-03T16:15:00.705Z,96362.38
2023-08-03T16:17:27.215Z,96367.13
2023-08-03T16:19:53.841Z,96357.19
2023-08-03T16:22:20.476Z,96351.41
2023-08-03T16:24:47.152Z,96357.53
2023-08-03T16:27:13.847Z,96373.50
2023-08-03T16:29:44.993Z,96355.41
2023-08-03T16:32:16.699Z,96352.28
2023-08-03T16:37:12.878Z,96358.88
2023-08-03T16:39:39.477Z,96358.13
2023-08-03T16:42:06.163Z,96356.25
2023-08-03T16:44:32.735Z,96353.09
2023-08-03T16:46:59.318Z,96353.66
2023-08-03T16:49:25.995Z,96350.72
2023-08-03T16:51:52.601Z,96350.38
2023-08-03T16:54:19.249Z,96350.44
2023-08-03T16:56:46.246Z,96351.31
2023-08-03T16:59:12.945Z,96356.25
2023-08-03T17:01:39.540Z,96362.91
2023-08-03T17:04:06.209Z,96365.72
2023-08-03T17:06:34.636Z,96357.78
2023-08-03T17:09:02.895Z,96356.25
2023-08-03T17:11:29.446Z,96355.69
2023-08-03T17:13:56.061Z,96350.41
2023-08-03T17:16:22.718Z,96359.50
2023-08-03T17:18:49.390Z,96353.59
2023-08-03T17:21:15.968Z,96352.91
2023-08-03T17:23:42.542Z,96362.66
2023-08-03T17:26:09.201Z,96358.66
2023-08-03T17:28:35.863Z,96357.84
2023-08-03T17:31:02.705Z,96361.44
2023-08-03T17:33:29.531Z,96355.69
2023-08-03T17:35:56.150Z,96367.88
2023-08-03T17:38:22.798Z,96375.63
2023-08-03T17:40:49.463Z,96370.22
2023-08-03T17:43:16.115Z,96376.38
2023-08-03T17:45:42.811Z,96380.66
2023-08-03T17:48:09.474Z,96381.88
2023-08-03T17:50:36.022Z,96375.19
2023-08-03T17:53:02.566Z,96391.13
2023-08-03T17:55:29.112Z,96393.72
2023-08-03T17:57:55.743Z,96387.69
2023-08-03T18:00:22.369Z,96399.53
2023-08-03T18:02:49.087Z,96396.63
2023-08-03T18:05:15.698Z,96398.44
2023-08-03T18:07:42.260Z,96409.53
2023-08-03T18:10:08.873Z,96413.47
2023-08-03T18:12:35.525Z,96411.34
2023-08-03T18:15:02.127Z,96419.88
2023-08-03T18:17:28.884Z,96415.19
2023-08-03T18:19:55.594Z,96421.75
2023-08-03T18:22:22.149Z,96422.63
2023-08-03T18:24:48.781Z,96422.94
2023-08-03T18:27:15.419Z,96425.84
2023-08-03T18:29:41.981Z,96422.19
2023-08-03T18:32:08.582Z,96432.19
2023-08-03T18:34:35.232Z,96425.69
2023-08-03T18:37:01.830Z,96434.78
2023-08-03T18:39:28.579Z,96434.66
2023-08-03T18:41:55.202Z,96432.19
2023-08-03T18:44:21.767Z,96439.91
2023-08-03T18:46:48.488Z,96444.19
2023-08-03T18:49:15.253Z,96457.22
2023-08-03T18:51:41.796Z,96454.94
2023-08-03T18:54:08.327Z,96463.44
2023-08-03T18:56:34.926Z,96465.41
2023-08-03T18:59:01.578Z,96469.97
2023-08-03T19:01:28.157Z,96468.13
2023-08-03T19:03:54.827Z,96472.38
2023-08-03T19:06:22.136Z,96475.25
2023-08-03T19:08:48.705Z,96474.19
2023-08-03T19:11:15.271Z,96482.06
2023-08-03T19:13:41.954Z,96478.72
2023-08-03T19:16:08.575Z,96475.25
2023-08-03T19:18:35.230Z,96481.63
2023-08-03T19:21:01.755Z,96482.06
2023-08-03T19:23:28.334Z,96489.66
2023-08-03T19:25:55.682Z,96491.91
2023-08-03T19:28:23.479Z,96495.09
2023-08-03T19:30:50.846Z,96499.47
2023-08-03T19:33:17.523Z,96501.91
2023-08-03T19:35:44.615Z,96502.38
2023-08-03T19:38:12.351Z,96510.88
2023-08-03T19:40:40.568Z,96516.00
2023-08-03T19:43:07.097Z,96519.66
2023-08-03T19:45:33.633Z,96522.66
2023-08-03T19:48:01.044Z,96523.00
2023-08-03T19:50:29.312Z,96529.34
2023-08-03T20:08:13.516Z,96543.00
2023-08-03T20:10:43.033Z,96539.69
2023-08-03T20:13:11.648Z,96542.06
2023-08-03T20:20:37.589Z,96553.00
2023-08-03T20:23:04.224Z,96555.88
2023-08-03T20:25:30.890Z,96558.72
2023-08-03T20:27:57.465Z,96558.13
2023-08-03T20:30:24.850Z,96557.84
2023-08-03T20:32:51.531Z,96558.00
2023-08-03T20:48:36.318Z,96562.38
2023-08-03T20:53:17.851Z,96571.75
2023-08-03T20:55:44.792Z,96565.88
2023-08-03T20:58:11.412Z,96556.47
2023-08-03T21:00:37.978Z,96559.66
2023-08-03T21:03:06.028Z,96559.66
2023-08-03T21:05:36.873Z,96554.19
2023-08-03T21:08:10.155Z,96559.03
2023-08-03T21:13:06.174Z,96557.38
2023-08-03T21:15:34.524Z,96559.47
2023-08-03T21:18:01.329Z,96558.13
2023-08-03T21:20:28.024Z,96560.56
2023-08-03T21:22:54.636Z,96553.59
2023-08-03T21:25:21.251Z,96559.03
2023-08-03T21:27:47.916Z,96558.56
2023-08-03T21:30:14.641Z,96560.84
2023-08-03T21:32:41.370Z,96574.19
2023-08-03T21:35:08.082Z,96575.56
2023-08-03T21:37:34.747Z,96579.78
2023-08-03T21:40:01.366Z,96586.16
2023-08-03T21:42:27.960Z,96576.91
2023-08-03T21:44:54.615Z,96577.63
2023-08-03T21:47:21.225Z,96583.22
2023-08-03T21:49:47.900Z,96586.75
2023-08-03T21:52:14.488Z,96583.56
2023-08-03T21:54:41.087Z,96589.16
2023-08-03T21:57:07.663Z,96584.59
2023-08-03T21:59:34.223Z,96586.28
2023-08-03T22:02:00.879Z,96591.25
2023-08-03T22:04:27.568Z,96581.13
2023-08-03T22:06:54.223Z,96577.50
2023-08-03T22:09:20.867Z,96578.81
2023-08-03T22:11:47.787Z,96576.66
2023-08-03T22:14:14.552Z,96581.97
2023-08-03T22:16:41.179Z,96587.25
2023-08-03T22:19:08.257Z,96590.75
2023-08-03T22:21:34.975Z,96578.75
2023-08-03T22:24:01.668Z,96581.03
2023-08-03T22:26:28.293Z,96578.00
2023-08-03T22:28:54.876Z,96583.44
2023-08-03T22:31:21.545Z,96576.97
2023-08-03T22:33:48.165Z,96575.59
2023-08-03T22:36:14.891Z,96583.31
2023-08-03T22:38:41.551Z,96577.88
2023-08-03T22:41:08.223Z,96580.47
2023-08-03T22:43:34.829Z,96575.63
2023-08-03T22:46:01.449Z,96577.72
2023-08-03T22:48:28.292Z,96584.81
2023-08-03T22:50:54.947Z,96578.31
2023-08-03T22:53:21.565Z,96577.72
2023-08-03T22:55:48.180Z,96573.63
2023-08-03T22:58:14.778Z,96573.31
2023-08-03T23:00:41.446Z,96568.28
2023-08-03T23:03:08.136Z,96580.44
2023-08-03T23:05:34.800Z,96572.13
2023-08-03T23:08:01.417Z,96570.13
2023-08-03T23:10:28.031Z,96569.56
2023-08-03T23:12:54.543Z,96574.06
2023-08-03T23:15:21.138Z,96571.50
2023-08-03T23:17:47.750Z,96575.81
2023-08-03T23:20:14.439Z,96580.44
2023-08-03T23:22:41.057Z,96587.09
2023-08-03T23:25:07.642Z,96586.16
2023-08-03T23:27:34.272Z,96584.34
2023-08-03T23:30:00.910Z,96586.72
2023-08-03T23:32:27.539Z,96583.44
2023-08-03T23:34:54.182Z,96581.28
2023-08-03T23:37:20.779Z,96589.81
2023-08-03T23:39:47.384Z,96584.34
2023-08-03T23:42:13.968Z,96581.34
2023-08-03T23:44:40.659Z,96581.28
2023-08-03T23:47:07.380Z,96585.53
2023-08-03T23:49:33.978Z,96585.88
2023-08-03T23:52:00.549Z,96584.97
2023-08-03T23:54:30.182Z,96588.78
2023-08-03T23:56:56.722Z,96586.06
2023-08-03T23:59:23.228Z,96588.13
